sensor_id;sensor_type;location;lat;lon;timestamp;P1;durP1;ratioP1;P2;durP2;ratioP2
11447;SDS011;43755;49.736;8.734;2022-11-15T00:01:43;3.58;;;3.00;;
11447;SDS011;43755;49.736;8.734;2022-11-15T00:03:45;4.35;;;3.10;;
11447;SDS011;43755;49.736;8.734;2022-11-15T00:05:46;3.60;;;2.67;;
11447;SDS011;43755;49.736;8.734;2022-11-15T00:07:48;3.92;;;2.83;;
11447;SDS011;43755;49.736;8.734;2022-11-15T00:09:49;3.35;;;3.05;;
11447;SDS011;43755;49.736;8.734;2022-11-15T00:11:52;6.57;;;2.88;;
11447;SDS011;43755;49.736;8.734;2022-11-15T00:13:54;3.13;;;2.80;;
11447;SDS011;43755;49.736;8.734;2022-11-15T00:15:56;3.15;;;2.80;;
11447;SDS011;43755;49.736;8.734;2022-11-15T00:17:59;3.22;;;2.67;;
11447;SDS011;43755;49.736;8.734;2022-11-15T00:20:00;3.17;;;2.83;;
11447;SDS011;43755;49.736;8.734;2022-11-15T00:22:01;2.92;;;2.63;;
11447;SDS011;43755;49.736;8.734;2022-11-15T00:24:03;5.35;;;2.70;;
11447;SDS011;43755;49.736;8.734;2022-11-15T00:26:05;3.20;;;2.90;;
11447;SDS011;43755;49.736;8.734;2022-11-15T00:28:08;2.88;;;2.67;;
11447;SDS011;43755;49.736;8.734;2022-11-15T00:30:10;3.10;;;2.90;;
11447;SDS011;43755;49.736;8.734;2022-11-15T00:32:12;4.47;;;3.10;;
11447;SDS011;43755;49.736;8.734;2022-11-15T00:34:13;2.97;;;2.67;;
11447;SDS011;43755;49.736;8.734;2022-11-15T00:36:15;5.05;;;2.97;;
11447;SDS011;43755;49.736;8.734;2022-11-15T00:38:16;3.17;;;2.70;;
11447;SDS011;43755;49.736;8.734;2022-11-15T00:40:18;4.57;;;2.65;;
11447;SDS011;43755;49.736;8.734;2022-11-15T00:42:19;3.20;;;2.90;;
11447;SDS011;43755;49.736;8.734;2022-11-15T00:44:22;5.40;;;2.80;;
11447;SDS011;43755;49.736;8.734;2022-11-15T00:46:23;3.10;;;2.80;;
11447;SDS011;43755;49.736;8.734;2022-11-15T00:48:24;3.72;;;2.75;;
11447;SDS011;43755;49.736;8.734;2022-11-15T00:50:26;3.58;;;2.95;;
11447;SDS011;43755;49.736;8.734;2022-11-15T00:52:30;3.25;;;2.63;;
11447;SDS011;43755;49.736;8.734;2022-11-15T00:54:31;3.30;;;2.80;;
11447;SDS011;43755;49.736;8.734;2022-11-15T00:56:32;3.55;;;3.00;;
11447;SDS011;43755;49.736;8.734;2022-11-15T00:58:34;3.33;;;2.72;;
11447;SDS011;43755;49.736;8.734;2022-11-15T01:00:36;3.33;;;2.92;;
11447;SDS011;43755;49.736;8.734;2022-11-15T01:02:38;3.22;;;2.92;;
11447;SDS011;43755;49.736;8.734;2022-11-15T01:04:39;3.65;;;2.80;;
11447;SDS011;43755;49.736;8.734;2022-11-15T01:06:41;3.65;;;2.83;;
11447;SDS011;43755;49.736;8.734;2022-11-15T01:08:42;5.13;;;3.00;;
11447;SDS011;43755;49.736;8.734;2022-11-15T01:10:44;3.28;;;2.70;;
11447;SDS011;43755;49.736;8.734;2022-11-15T01:12:45;3.63;;;3.17;;
11447;SDS011;43755;49.736;8.734;2022-11-15T01:14:46;2.72;;;2.53;;
11447;SDS011;43755;49.736;8.734;2022-11-15T01:16:49;2.85;;;2.55;;
11447;SDS011;43755;49.736;8.734;2022-11-15T01:18:51;3.72;;;2.58;;
11447;SDS011;43755;49.736;8.734;2022-11-15T01:20:52;2.80;;;2.60;;
11447;SDS011;43755;49.736;8.734;2022-11-15T01:22:53;4.20;;;2.88;;
11447;SDS011;43755;49.736;8.734;2022-11-15T01:24:55;2.80;;;2.60;;
11447;SDS011;43755;49.736;8.734;2022-11-15T01:26:56;2.70;;;2.50;;
11447;SDS011;43755;49.736;8.734;2022-11-15T01:28:58;3.25;;;2.88;;
11447;SDS011;43755;49.736;8.734;2022-11-15T01:30:59;3.00;;;2.70;;
11447;SDS011;43755;49.736;8.734;2022-11-15T01:33:02;3.13;;;2.92;;
11447;SDS011;43755;49.736;8.734;2022-11-15T01:35:04;4.75;;;2.90;;
11447;SDS011;43755;49.736;8.734;2022-11-15T01:37:05;3.95;;;2.47;;
11447;SDS011;43755;49.736;8.734;2022-11-15T01:39:07;5.13;;;2.80;;
11447;SDS011;43755;49.736;8.734;2022-11-15T01:41:13;3.30;;;2.70;;
11447;SDS011;43755;49.736;8.734;2022-11-15T01:43:21;2.92;;;2.72;;
11447;SDS011;43755;49.736;8.734;2022-11-15T01:45:24;2.63;;;2.42;;
11447;SDS011;43755;49.736;8.734;2022-11-15T01:47:27;3.55;;;2.63;;
11447;SDS011;43755;49.736;8.734;2022-11-15T01:49:33;2.92;;;2.72;;
11447;SDS011;43755;49.736;8.734;2022-11-15T01:51:38;3.35;;;3.15;;
11447;SDS011;43755;49.736;8.734;2022-11-15T01:53:40;2.90;;;2.55;;
11447;SDS011;43755;49.736;8.734;2022-11-15T01:55:46;3.95;;;3.03;;
11447;SDS011;43755;49.736;8.734;2022-11-15T01:57:48;4.10;;;2.97;;
11447;SDS011;43755;49.736;8.734;2022-11-15T01:59:54;5.00;;;2.80;;
11447;SDS011;43755;49.736;8.734;2022-11-15T02:01:56;4.18;;;2.92;;
11447;SDS011;43755;49.736;8.734;2022-11-15T02:03:58;3.45;;;2.92;;
11447;SDS011;43755;49.736;8.734;2022-11-15T02:06:04;3.22;;;2.92;;
11447;SDS011;43755;49.736;8.734;2022-11-15T02:08:06;3.30;;;2.97;;
11447;SDS011;43755;49.736;8.734;2022-11-15T02:10:20;3.40;;;3.05;;
11447;SDS011;43755;49.736;8.734;2022-11-15T02:12:23;3.20;;;2.63;;
11447;SDS011;43755;49.736;8.734;2022-11-15T02:14:24;5.60;;;3.05;;
11447;SDS011;43755;49.736;8.734;2022-11-15T02:16:30;3.28;;;2.83;;
11447;SDS011;43755;49.736;8.734;2022-11-15T02:18:41;3.42;;;2.80;;
11447;SDS011;43755;49.736;8.734;2022-11-15T02:20:52;4.10;;;2.65;;
11447;SDS011;43755;49.736;8.734;2022-11-15T02:23:08;4.00;;;3.30;;
11447;SDS011;43755;49.736;8.734;2022-11-15T02:25:33;3.13;;;2.90;;
11447;SDS011;43755;49.736;8.734;2022-11-15T02:27:42;3.08;;;2.80;;
11447;SDS011;43755;49.736;8.734;2022-11-15T02:30:03;2.47;;;2.30;;
11447;SDS011;43755;49.736;8.734;2022-11-15T02:32:16;3.05;;;2.50;;
11447;SDS011;43755;49.736;8.734;2022-11-15T02:34:24;4.18;;;2.80;;
11447;SDS011;43755;49.736;8.734;2022-11-15T02:36:35;4.00;;;3.00;;
11447;SDS011;43755;49.736;8.734;2022-11-15T02:38:43;2.95;;;2.35;;
11447;SDS011;43755;49.736;8.734;2022-11-15T02:40:53;3.00;;;2.78;;
11447;SDS011;43755;49.736;8.734;2022-11-15T02:43:00;3.55;;;2.72;;
11447;SDS011;43755;49.736;8.734;2022-11-15T02:45:28;4.32;;;2.90;;
11447;SDS011;43755;49.736;8.734;2022-11-15T02:47:34;3.50;;;2.70;;
11447;SDS011;43755;49.736;8.734;2022-11-15T02:49:41;2.78;;;2.58;;
11447;SDS011;43755;49.736;8.734;2022-11-15T02:51:46;2.92;;;2.65;;
11447;SDS011;43755;49.736;8.734;2022-11-15T02:53:50;3.10;;;2.67;;
11447;SDS011;43755;49.736;8.734;2022-11-15T02:55:51;4.30;;;2.83;;
11447;SDS011;43755;49.736;8.734;2022-11-15T02:57:59;3.58;;;2.75;;
11447;SDS011;43755;49.736;8.734;2022-11-15T03:00:10;3.33;;;2.60;;
11447;SDS011;43755;49.736;8.734;2022-11-15T03:02:18;3.17;;;2.80;;
11447;SDS011;43755;49.736;8.734;2022-11-15T03:04:31;2.85;;;2.65;;
11447;SDS011;43755;49.736;8.734;2022-11-15T03:06:41;4.43;;;2.90;;
11447;SDS011;43755;49.736;8.734;2022-11-15T03:08:48;4.53;;;2.97;;
11447;SDS011;43755;49.736;8.734;2022-11-15T03:10:58;5.40;;;3.10;;
11447;SDS011;43755;49.736;8.734;2022-11-15T03:13:06;2.80;;;2.60;;
11447;SDS011;43755;49.736;8.734;2022-11-15T03:15:20;4.07;;;2.67;;
11447;SDS011;43755;49.736;8.734;2022-11-15T03:17:27;3.33;;;2.70;;
11447;SDS011;43755;49.736;8.734;2022-11-15T03:19:32;3.40;;;2.70;;
11447;SDS011;43755;49.736;8.734;2022-11-15T03:21:40;4.18;;;2.88;;
11447;SDS011;43755;49.736;8.734;2022-11-15T03:23:42;4.20;;;2.80;;
11447;SDS011;43755;49.736;8.734;2022-11-15T03:25:47;4.07;;;2.80;;
11447;SDS011;43755;49.736;8.734;2022-11-15T03:27:52;3.13;;;2.60;;
11447;SDS011;43755;49.736;8.734;2022-11-15T03:29:58;3.38;;;2.67;;
11447;SDS011;43755;49.736;8.734;2022-11-15T03:32:03;3.30;;;3.00;;
11447;SDS011;43755;49.736;8.734;2022-11-15T03:34:13;3.53;;;2.70;;
11447;SDS011;43755;49.736;8.734;2022-11-15T03:36:22;6.35;;;2.83;;
11447;SDS011;43755;49.736;8.734;2022-11-15T03:38:26;2.63;;;2.40;;
11447;SDS011;43755;49.736;8.734;2022-11-15T03:40:33;4.95;;;2.90;;
11447;SDS011;43755;49.736;8.734;2022-11-15T03:42:40;3.35;;;2.65;;
11447;SDS011;43755;49.736;8.734;2022-11-15T03:44:54;3.40;;;2.67;;
11447;SDS011;43755;49.736;8.734;2022-11-15T03:47:02;3.33;;;2.83;;
11447;SDS011;43755;49.736;8.734;2022-11-15T03:49:08;2.92;;;2.72;;
11447;SDS011;43755;49.736;8.734;2022-11-15T03:51:14;2.83;;;2.63;;
11447;SDS011;43755;49.736;8.734;2022-11-15T03:53:16;3.55;;;2.72;;
11447;SDS011;43755;49.736;8.734;2022-11-15T03:55:18;3.20;;;2.85;;
11447;SDS011;43755;49.736;8.734;2022-11-15T03:57:21;5.03;;;2.70;;
11447;SDS011;43755;49.736;8.734;2022-11-15T03:59:23;3.08;;;2.72;;
11447;SDS011;43755;49.736;8.734;2022-11-15T04:01:24;4.20;;;2.67;;
11447;SDS011;43755;49.736;8.734;2022-11-15T04:03:25;4.22;;;2.88;;
11447;SDS011;43755;49.736;8.734;2022-11-15T04:05:28;2.67;;;2.45;;
11447;SDS011;43755;49.736;8.734;2022-11-15T04:07:29;4.32;;;2.72;;
11447;SDS011;43755;49.736;8.734;2022-11-15T04:09:31;4.20;;;2.50;;
11447;SDS011;43755;49.736;8.734;2022-11-15T04:11:32;3.08;;;2.67;;
11447;SDS011;43755;49.736;8.734;2022-11-15T04:13:34;2.75;;;2.55;;
11447;SDS011;43755;49.736;8.734;2022-11-15T04:15:35;3.05;;;2.50;;
11447;SDS011;43755;49.736;8.734;2022-11-15T04:17:38;3.22;;;2.80;;
11447;SDS011;43755;49.736;8.734;2022-11-15T04:19:40;2.42;;;2.22;;
11447;SDS011;43755;49.736;8.734;2022-11-15T04:22:00;3.53;;;2.40;;
11447;SDS011;43755;49.736;8.734;2022-11-15T04:24:19;3.40;;;3.10;;
11447;SDS011;43755;49.736;8.734;2022-11-15T04:26:21;7.60;;;2.75;;
11447;SDS011;43755;49.736;8.734;2022-11-15T04:28:24;3.33;;;2.70;;
11447;SDS011;43755;49.736;8.734;2022-11-15T04:30:25;2.60;;;2.40;;
11447;SDS011;43755;49.736;8.734;2022-11-15T04:32:26;3.63;;;2.30;;
11447;SDS011;43755;49.736;8.734;2022-11-15T04:34:27;3.10;;;2.38;;
11447;SDS011;43755;49.736;8.734;2022-11-15T04:36:28;3.33;;;2.50;;
11447;SDS011;43755;49.736;8.734;2022-11-15T04:38:48;2.60;;;2.10;;
11447;SDS011;43755;49.736;8.734;2022-11-15T04:40:50;2.90;;;2.60;;
11447;SDS011;43755;49.736;8.734;2022-11-15T04:42:51;2.60;;;2.35;;
11447;SDS011;43755;49.736;8.734;2022-11-15T04:44:53;3.42;;;2.50;;
11447;SDS011;43755;49.736;8.734;2022-11-15T04:46:55;4.40;;;2.28;;
11447;SDS011;43755;49.736;8.734;2022-11-15T04:48:57;2.85;;;2.40;;
11447;SDS011;43755;49.736;8.734;2022-11-15T04:50:58;2.80;;;2.60;;
11447;SDS011;43755;49.736;8.734;2022-11-15T04:53:00;5.82;;;2.83;;
11447;SDS011;43755;49.736;8.734;2022-11-15T04:55:03;4.15;;;2.78;;
11447;SDS011;43755;49.736;8.734;2022-11-15T04:57:04;2.95;;;2.65;;
11447;SDS011;43755;49.736;8.734;2022-11-15T04:59:06;3.83;;;2.58;;
11447;SDS011;43755;49.736;8.734;2022-11-15T05:01:07;3.42;;;2.65;;
11447;SDS011;43755;49.736;8.734;2022-11-15T05:03:09;3.28;;;2.33;;
11447;SDS011;43755;49.736;8.734;2022-11-15T05:05:28;2.97;;;2.58;;
11447;SDS011;43755;49.736;8.734;2022-11-15T05:07:30;3.60;;;2.47;;
11447;SDS011;43755;49.736;8.734;2022-11-15T05:09:31;2.58;;;2.38;;
11447;SDS011;43755;49.736;8.734;2022-11-15T05:11:34;2.63;;;2.42;;
11447;SDS011;43755;49.736;8.734;2022-11-15T05:13:35;4.43;;;2.72;;
11447;SDS011;43755;49.736;8.734;2022-11-15T05:15:36;2.78;;;2.58;;
11447;SDS011;43755;49.736;8.734;2022-11-15T05:17:38;5.78;;;2.75;;
11447;SDS011;43755;49.736;8.734;2022-11-15T05:19:39;3.13;;;2.80;;
11447;SDS011;43755;49.736;8.734;2022-11-15T05:21:41;4.35;;;2.83;;
11447;SDS011;43755;49.736;8.734;2022-11-15T05:23:42;5.25;;;2.90;;
11447;SDS011;43755;49.736;8.734;2022-11-15T05:25:43;2.92;;;2.72;;
11447;SDS011;43755;49.736;8.734;2022-11-15T05:27:46;2.97;;;2.78;;
11447;SDS011;43755;49.736;8.734;2022-11-15T05:29:48;3.42;;;2.63;;
11447;SDS011;43755;49.736;8.734;2022-11-15T05:31:49;3.45;;;2.83;;
11447;SDS011;43755;49.736;8.734;2022-11-15T05:33:51;4.47;;;2.90;;
11447;SDS011;43755;49.736;8.734;2022-11-15T05:35:54;4.45;;;3.25;;
11447;SDS011;43755;49.736;8.734;2022-11-15T05:38:00;3.20;;;2.90;;
11447;SDS011;43755;49.736;8.734;2022-11-15T05:40:01;3.33;;;2.92;;
11447;SDS011;43755;49.736;8.734;2022-11-15T05:42:04;4.82;;;3.08;;
11447;SDS011;43755;49.736;8.734;2022-11-15T05:44:11;3.90;;;3.10;;
11447;SDS011;43755;49.736;8.734;2022-11-15T05:46:15;3.17;;;2.88;;
11447;SDS011;43755;49.736;8.734;2022-11-15T05:48:18;3.47;;;2.80;;
11447;SDS011;43755;49.736;8.734;2022-11-15T05:50:20;2.90;;;2.65;;
11447;SDS011;43755;49.736;8.734;2022-11-15T05:52:22;3.13;;;2.63;;
11447;SDS011;43755;49.736;8.734;2022-11-15T05:54:26;5.13;;;3.00;;
11447;SDS011;43755;49.736;8.734;2022-11-15T05:56:28;3.78;;;2.90;;
11447;SDS011;43755;49.736;8.734;2022-11-15T05:58:30;5.35;;;2.88;;
11447;SDS011;43755;49.736;8.734;2022-11-15T06:00:33;4.13;;;2.92;;
11447;SDS011;43755;49.736;8.734;2022-11-15T06:02:35;3.38;;;3.05;;
11447;SDS011;43755;49.736;8.734;2022-11-15T06:04:36;3.50;;;3.15;;
11447;SDS011;43755;49.736;8.734;2022-11-15T06:06:38;5.13;;;3.30;;
11447;SDS011;43755;49.736;8.734;2022-11-15T06:08:39;3.90;;;2.90;;
11447;SDS011;43755;49.736;8.734;2022-11-15T06:10:41;3.30;;;3.00;;
11447;SDS011;43755;49.736;8.734;2022-11-15T06:12:42;5.28;;;3.40;;
11447;SDS011;43755;49.736;8.734;2022-11-15T06:14:43;2.90;;;2.60;;
11447;SDS011;43755;49.736;8.734;2022-11-15T06:16:46;3.17;;;2.95;;
11447;SDS011;43755;49.736;8.734;2022-11-15T06:18:47;3.58;;;3.15;;
11447;SDS011;43755;49.736;8.734;2022-11-15T06:20:49;5.65;;;3.22;;
11447;SDS011;43755;49.736;8.734;2022-11-15T06:22:50;4.28;;;3.08;;
11447;SDS011;43755;49.736;8.734;2022-11-15T06:24:52;3.85;;;3.20;;
11447;SDS011;43755;49.736;8.734;2022-11-15T06:26:53;3.85;;;3.55;;
11447;SDS011;43755;49.736;8.734;2022-11-15T06:28:55;4.10;;;3.00;;
11447;SDS011;43755;49.736;8.734;2022-11-15T06:31:01;3.33;;;3.00;;
11447;SDS011;43755;49.736;8.734;2022-11-15T06:33:05;4.85;;;3.65;;
11447;SDS011;43755;49.736;8.734;2022-11-15T06:35:08;2.97;;;2.67;;
11447;SDS011;43755;49.736;8.734;2022-11-15T06:37:10;2.88;;;2.67;;
11447;SDS011;43755;49.736;8.734;2022-11-15T06:39:11;5.20;;;2.55;;
11447;SDS011;43755;49.736;8.734;2022-11-15T06:41:13;5.40;;;2.67;;
11447;SDS011;43755;49.736;8.734;2022-11-15T06:43:15;4.05;;;2.72;;
11447;SDS011;43755;49.736;8.734;2022-11-15T06:45:16;3.13;;;2.83;;
11447;SDS011;43755;49.736;8.734;2022-11-15T06:47:17;3.30;;;2.75;;
11447;SDS011;43755;49.736;8.734;2022-11-15T06:49:20;3.83;;;2.85;;
11447;SDS011;43755;49.736;8.734;2022-11-15T06:51:22;4.38;;;2.80;;
11447;SDS011;43755;49.736;8.734;2022-11-15T06:53:23;4.03;;;2.63;;
11447;SDS011;43755;49.736;8.734;2022-11-15T06:55:25;3.45;;;2.63;;
11447;SDS011;43755;49.736;8.734;2022-11-15T06:57:26;3.67;;;2.80;;
11447;SDS011;43755;49.736;8.734;2022-11-15T06:59:28;6.68;;;2.80;;
11447;SDS011;43755;49.736;8.734;2022-11-15T07:01:29;3.13;;;2.60;;
11447;SDS011;43755;49.736;8.734;2022-11-15T07:03:30;3.75;;;2.33;;
11447;SDS011;43755;49.736;8.734;2022-11-15T07:05:34;3.03;;;2.30;;
11447;SDS011;43755;49.736;8.734;2022-11-15T07:07:36;3.10;;;2.80;;
11447;SDS011;43755;49.736;8.734;2022-11-15T07:09:37;3.67;;;2.97;;
11447;SDS011;43755;49.736;8.734;2022-11-15T07:11:39;3.35;;;2.70;;
11447;SDS011;43755;49.736;8.734;2022-11-15T07:13:40;6.18;;;2.60;;
11447;SDS011;43755;49.736;8.734;2022-11-15T07:15:42;3.22;;;2.70;;
11447;SDS011;43755;49.736;8.734;2022-11-15T07:17:43;3.58;;;2.65;;
11447;SDS011;43755;49.736;8.734;2022-11-15T07:19:45;4.38;;;2.50;;
11447;SDS011;43755;49.736;8.734;2022-11-15T07:21:47;4.05;;;2.42;;
11447;SDS011;43755;49.736;8.734;2022-11-15T07:23:49;2.70;;;2.50;;
11447;SDS011;43755;49.736;8.734;2022-11-15T07:25:50;3.22;;;2.53;;
11447;SDS011;43755;49.736;8.734;2022-11-15T07:27:53;3.67;;;2.42;;
11447;SDS011;43755;49.736;8.734;2022-11-15T07:29:55;3.00;;;2.70;;
11447;SDS011;43755;49.736;8.734;2022-11-15T07:31:57;3.80;;;2.55;;
11447;SDS011;43755;49.736;8.734;2022-11-15T07:33:59;3.55;;;2.40;;
11447;SDS011;43755;49.736;8.734;2022-11-15T07:36:00;3.50;;;2.35;;
11447;SDS011;43755;49.736;8.734;2022-11-15T07:38:03;8.57;;;3.08;;
11447;SDS011;43755;49.736;8.734;2022-11-15T07:40:05;3.65;;;2.50;;
11447;SDS011;43755;49.736;8.734;2022-11-15T07:42:08;3.38;;;2.67;;
11447;SDS011;43755;49.736;8.734;2022-11-15T07:44:27;5.05;;;2.70;;
11447;SDS011;43755;49.736;8.734;2022-11-15T07:46:29;3.03;;;2.65;;
11447;SDS011;43755;49.736;8.734;2022-11-15T07:48:30;2.72;;;2.50;;
11447;SDS011;43755;49.736;8.734;2022-11-15T07:50:32;2.60;;;2.40;;
11447;SDS011;43755;49.736;8.734;2022-11-15T07:52:33;2.95;;;2.58;;
11447;SDS011;43755;49.736;8.734;2022-11-15T07:54:36;2.55;;;2.33;;
11447;SDS011;43755;49.736;8.734;2022-11-15T07:56:37;3.03;;;2.72;;
11447;SDS011;43755;49.736;8.734;2022-11-15T07:58:39;3.08;;;2.78;;
11447;SDS011;43755;49.736;8.734;2022-11-15T08:00:40;2.80;;;2.60;;
11447;SDS011;43755;49.736;8.734;2022-11-15T08:02:41;4.25;;;2.80;;
11447;SDS011;43755;49.736;8.734;2022-11-15T08:04:43;3.00;;;2.70;;
11447;SDS011;43755;49.736;8.734;2022-11-15T08:06:45;3.15;;;2.63;;
11447;SDS011;43755;49.736;8.734;2022-11-15T08:08:46;3.25;;;2.53;;
11447;SDS011;43755;49.736;8.734;2022-11-15T08:10:49;3.92;;;2.40;;
11447;SDS011;43755;49.736;8.734;2022-11-15T08:12:56;2.63;;;2.40;;
11447;SDS011;43755;49.736;8.734;2022-11-15T08:14:58;2.65;;;2.30;;
11447;SDS011;43755;49.736;8.734;2022-11-15T08:16:59;2.70;;;2.50;;
11447;SDS011;43755;49.736;8.734;2022-11-15T08:19:01;4.00;;;2.20;;
11447;SDS011;43755;49.736;8.734;2022-11-15T08:21:03;5.75;;;2.83;;
11447;SDS011;43755;49.736;8.734;2022-11-15T08:23:05;3.67;;;2.25;;
11447;SDS011;43755;49.736;8.734;2022-11-15T08:25:07;2.50;;;2.30;;
11447;SDS011;43755;49.736;8.734;2022-11-15T08:27:10;2.22;;;1.88;;
11447;SDS011;43755;49.736;8.734;2022-11-15T08:29:15;2.30;;;2.00;;
11447;SDS011;43755;49.736;8.734;2022-11-15T08:31:17;2.30;;;2.03;;
11447;SDS011;43755;49.736;8.734;2022-11-15T08:33:19;3.13;;;2.15;;
11447;SDS011;43755;49.736;8.734;2022-11-15T08:35:20;2.28;;;2.00;;
11447;SDS011;43755;49.736;8.734;2022-11-15T08:37:22;2.22;;;2.00;;
11447;SDS011;43755;49.736;8.734;2022-11-15T08:39:23;2.63;;;1.80;;
11447;SDS011;43755;49.736;8.734;2022-11-15T08:41:25;3.30;;;1.83;;
11447;SDS011;43755;49.736;8.734;2022-11-15T08:43:30;2.03;;;1.92;;
11447;SDS011;43755;49.736;8.734;2022-11-15T08:45:33;2.17;;;1.98;;
11447;SDS011;43755;49.736;8.734;2022-11-15T08:47:35;2.97;;;1.98;;
11447;SDS011;43755;49.736;8.734;2022-11-15T08:49:36;2.67;;;1.77;;
11447;SDS011;43755;49.736;8.734;2022-11-15T08:51:38;2.30;;;1.85;;
11447;SDS011;43755;49.736;8.734;2022-11-15T08:53:39;2.28;;;1.80;;
11447;SDS011;43755;49.736;8.734;2022-11-15T08:55:41;2.17;;;1.70;;
11447;SDS011;43755;49.736;8.734;2022-11-15T08:57:42;2.30;;;1.98;;
11447;SDS011;43755;49.736;8.734;2022-11-15T08:59:45;2.13;;;1.90;;
11447;SDS011;43755;49.736;8.734;2022-11-15T09:01:47;3.03;;;2.10;;
11447;SDS011;43755;49.736;8.734;2022-11-15T09:03:48;2.53;;;2.10;;
11447;SDS011;43755;49.736;8.734;2022-11-15T09:05:53;3.40;;;2.00;;
11447;SDS011;43755;49.736;8.734;2022-11-15T09:07:55;2.05;;;1.92;;
11447;SDS011;43755;49.736;8.734;2022-11-15T09:09:57;2.08;;;1.80;;
11447;SDS011;43755;49.736;8.734;2022-11-15T09:11:58;2.10;;;2.00;;
11447;SDS011;43755;49.736;8.734;2022-11-15T09:14:00;2.38;;;2.15;;
11447;SDS011;43755;49.736;8.734;2022-11-15T09:16:03;3.75;;;2.10;;
11447;SDS011;43755;49.736;8.734;2022-11-15T09:18:05;2.72;;;2.13;;
11447;SDS011;43755;49.736;8.734;2022-11-15T09:20:07;2.50;;;2.30;;
11447;SDS011;43755;49.736;8.734;2022-11-15T09:22:09;2.78;;;2.42;;
11447;SDS011;43755;49.736;8.734;2022-11-15T09:24:10;2.50;;;2.28;;
11447;SDS011;43755;49.736;8.734;2022-11-15T09:26:12;3.47;;;2.20;;
11447;SDS011;43755;49.736;8.734;2022-11-15T09:28:13;2.50;;;2.40;;
11447;SDS011;43755;49.736;8.734;2022-11-15T09:30:15;2.78;;;2.58;;
11447;SDS011;43755;49.736;8.734;2022-11-15T09:32:18;2.80;;;2.60;;
11447;SDS011;43755;49.736;8.734;2022-11-15T09:34:19;5.30;;;2.92;;
11447;SDS011;43755;49.736;8.734;2022-11-15T09:36:21;3.03;;;2.60;;
11447;SDS011;43755;49.736;8.734;2022-11-15T09:38:23;2.97;;;2.72;;
11447;SDS011;43755;49.736;8.734;2022-11-15T09:40:24;4.38;;;2.88;;
11447;SDS011;43755;49.736;8.734;2022-11-15T09:42:30;2.70;;;2.50;;
11447;SDS011;43755;49.736;8.734;2022-11-15T09:44:47;5.40;;;3.00;;
11447;SDS011;43755;49.736;8.734;2022-11-15T09:47:05;4.18;;;2.75;;
11447;SDS011;43755;49.736;8.734;2022-11-15T09:49:20;2.95;;;2.75;;
11447;SDS011;43755;49.736;8.734;2022-11-15T09:51:27;3.05;;;2.55;;
11447;SDS011;43755;49.736;8.734;2022-11-15T09:53:33;2.85;;;2.65;;
11447;SDS011;43755;49.736;8.734;2022-11-15T09:55:39;3.15;;;2.58;;
11447;SDS011;43755;49.736;8.734;2022-11-15T09:57:51;3.13;;;2.90;;
11447;SDS011;43755;49.736;8.734;2022-11-15T10:00:07;5.43;;;2.85;;
11447;SDS011;43755;49.736;8.734;2022-11-15T10:02:27;3.58;;;2.65;;
11447;SDS011;43755;49.736;8.734;2022-11-15T10:04:41;3.00;;;2.80;;
11447;SDS011;43755;49.736;8.734;2022-11-15T10:06:44;2.83;;;2.60;;
11447;SDS011;43755;49.736;8.734;2022-11-15T10:08:55;3.47;;;2.60;;
11447;SDS011;43755;49.736;8.734;2022-11-15T10:11:02;2.80;;;2.60;;
11447;SDS011;43755;49.736;8.734;2022-11-15T10:13:06;2.70;;;2.50;;
11447;SDS011;43755;49.736;8.734;2022-11-15T10:15:15;2.20;;;2.10;;
11447;SDS011;43755;49.736;8.734;2022-11-15T10:19:59;2.45;;;2.30;;
11447;SDS011;43755;49.736;8.734;2022-11-15T10:22:12;2.20;;;2.00;;
11447;SDS011;43755;49.736;8.734;2022-11-15T10:24:26;2.30;;;2.20;;
11447;SDS011;43755;49.736;8.734;2022-11-15T10:26:29;2.38;;;2.17;;
11447;SDS011;43755;49.736;8.734;2022-11-15T10:28:30;2.15;;;2.05;;
11447;SDS011;43755;49.736;8.734;2022-11-15T10:30:33;2.38;;;2.17;;
11447;SDS011;43755;49.736;8.734;2022-11-15T10:32:36;2.95;;;2.20;;
11447;SDS011;43755;49.736;8.734;2022-11-15T10:34:37;2.20;;;2.00;;
11447;SDS011;43755;49.736;8.734;2022-11-15T10:36:40;1.98;;;1.83;;
11447;SDS011;43755;49.736;8.734;2022-11-15T10:38:50;2.47;;;2.03;;
11447;SDS011;43755;49.736;8.734;2022-11-15T10:40:53;1.70;;;1.60;;
11447;SDS011;43755;49.736;8.734;2022-11-15T10:43:15;2.47;;;1.90;;
11447;SDS011;43755;49.736;8.734;2022-11-15T10:45:25;1.90;;;1.80;;
11447;SDS011;43755;49.736;8.734;2022-11-15T10:47:28;1.90;;;1.80;;
11447;SDS011;43755;49.736;8.734;2022-11-15T10:49:32;1.70;;;1.60;;
11447;SDS011;43755;49.736;8.734;2022-11-15T10:51:34;1.77;;;1.63;;
11447;SDS011;43755;49.736;8.734;2022-11-15T10:53:43;1.67;;;1.55;;
11447;SDS011;43755;49.736;8.734;2022-11-15T10:55:47;2.25;;;1.60;;
11447;SDS011;43755;49.736;8.734;2022-11-15T10:57:51;1.92;;;1.70;;
11447;SDS011;43755;49.736;8.734;2022-11-15T10:59:54;1.90;;;1.80;;
11447;SDS011;43755;49.736;8.734;2022-11-15T11:01:58;3.47;;;1.65;;
11447;SDS011;43755;49.736;8.734;2022-11-15T11:04:01;1.90;;;1.80;;
11447;SDS011;43755;49.736;8.734;2022-11-15T11:06:05;1.70;;;1.60;;
11447;SDS011;43755;49.736;8.734;2022-11-15T11:08:21;3.78;;;1.63;;
11447;SDS011;43755;49.736;8.734;2022-11-15T11:10:25;1.55;;;1.45;;
11447;SDS011;43755;49.736;8.734;2022-11-15T11:12:27;1.80;;;1.70;;
11447;SDS011;43755;49.736;8.734;2022-11-15T11:14:30;1.70;;;1.60;;
11447;SDS011;43755;49.736;8.734;2022-11-15T11:16:41;1.80;;;1.70;;
11447;SDS011;43755;49.736;8.734;2022-11-15T11:18:48;2.60;;;1.58;;
11447;SDS011;43755;49.736;8.734;2022-11-15T11:20:58;1.75;;;1.63;;
11447;SDS011;43755;49.736;8.734;2022-11-15T11:23:14;2.10;;;1.58;;
11447;SDS011;43755;49.736;8.734;2022-11-15T11:25:26;1.90;;;1.55;;
11447;SDS011;43755;49.736;8.734;2022-11-15T11:27:36;1.60;;;1.48;;
11447;SDS011;43755;49.736;8.734;2022-11-15T11:29:49;1.27;;;1.17;;
11447;SDS011;43755;49.736;8.734;2022-11-15T11:32:01;1.67;;;1.58;;
11447;SDS011;43755;49.736;8.734;2022-11-15T11:34:09;2.22;;;1.33;;
11447;SDS011;43755;49.736;8.734;2022-11-15T11:36:19;1.65;;;1.40;;
11447;SDS011;43755;49.736;8.734;2022-11-15T11:40:58;1.50;;;1.40;;
11447;SDS011;43755;49.736;8.734;2022-11-15T11:43:06;1.58;;;1.48;;
11447;SDS011;43755;49.736;8.734;2022-11-15T11:45:22;1.50;;;1.40;;
11447;SDS011;43755;49.736;8.734;2022-11-15T11:47:39;1.48;;;1.38;;
11447;SDS011;43755;49.736;8.734;2022-11-15T11:49:43;2.60;;;1.20;;
11447;SDS011;43755;49.736;8.734;2022-11-15T11:51:51;2.53;;;1.40;;
11447;SDS011;43755;49.736;8.734;2022-11-15T11:53:56;1.50;;;1.40;;
11447;SDS011;43755;49.736;8.734;2022-11-15T11:56:04;1.10;;;1.10;;
11447;SDS011;43755;49.736;8.734;2022-11-15T11:58:17;1.30;;;1.20;;
11447;SDS011;43755;49.736;8.734;2022-11-15T12:00:23;3.08;;;1.73;;
11447;SDS011;43755;49.736;8.734;2022-11-15T12:02:28;2.15;;;1.40;;
11447;SDS011;43755;49.736;8.734;2022-11-15T12:04:34;2.15;;;1.30;;
11447;SDS011;43755;49.736;8.734;2022-11-15T12:06:41;1.83;;;1.30;;
11447;SDS011;43755;49.736;8.734;2022-11-15T12:08:48;1.42;;;1.30;;
11447;SDS011;43755;49.736;8.734;2022-11-15T12:10:59;1.20;;;1.20;;
11447;SDS011;43755;49.736;8.734;2022-11-15T12:13:07;1.85;;;1.58;;
11447;SDS011;43755;49.736;8.734;2022-11-15T12:15:15;1.38;;;1.38;;
11447;SDS011;43755;49.736;8.734;2022-11-15T12:17:20;2.42;;;1.60;;
11447;SDS011;43755;49.736;8.734;2022-11-15T12:19:24;1.42;;;1.33;;
11447;SDS011;43755;49.736;8.734;2022-11-15T12:21:28;2.67;;;1.60;;
11447;SDS011;43755;49.736;8.734;2022-11-15T12:23:39;2.97;;;1.50;;
11447;SDS011;43755;49.736;8.734;2022-11-15T12:25:48;1.50;;;1.40;;
11447;SDS011;43755;49.736;8.734;2022-11-15T12:27:53;1.73;;;1.40;;
11447;SDS011;43755;49.736;8.734;2022-11-15T12:30:00;3.70;;;1.90;;
11447;SDS011;43755;49.736;8.734;2022-11-15T12:32:04;1.40;;;1.30;;
11447;SDS011;43755;49.736;8.734;2022-11-15T12:34:35;1.35;;;1.27;;
11447;SDS011;43755;49.736;8.734;2022-11-15T12:36:42;1.58;;;1.10;;